Time;durP1;ratioP1;P1;durP2;ratioP2;P2;SDS_P1;SDS_P2;PMS_P1;PMS_P2;Temp;Humidity;BMP_temperature;BMP_pressure;BME280_temperature;BME280_humidity;BME280_pressure;Samples;Min_cycle;Max_cycle;Signal;HPM_P1;HPM_P2
2023/03/21 00:01:08;;;;;;;2.60;1.65;;;;;;;;;;5056930;28;20292;-83
2023/03/21 00:03:36;;;;;;;1.60;1.50;;;;;;;;;;5056728;28;20308;-84
2023/03/21 00:06:07;;;;;;;3.20;1.80;;;;;;;;;;5055882;28;20209;-85
2023/03/21 00:08:35;;;;;;;3.53;2.03;;;;;;;;;;5053156;28;20895;-84
2023/03/21 00:11:06;;;;;;;3.60;1.92;;;;;;;;;;5051581;28;20224;-84
2023/03/21 00:13:37;;;;;;;2.30;1.50;;;;;;;;;;5056649;28;20220;-84
2023/03/21 00:16:06;;;;;;;2.90;1.38;;;;;;;;;;5055154;28;20598;-84
2023/03/21 00:18:35;;;;;;;1.77;1.45;;;;;;;;;;5053529;28;20422;-84
2023/03/21 00:21:05;;;;;;;2.33;2.13;;;;;;;;;;5051456;28;20206;-84
2023/03/21 00:23:34;;;;;;;2.20;1.73;;;;;;;;;;5051262;28;20613;-83
2023/03/21 00:26:03;;;;;;;4.03;3.10;;;;;;;;;;5048570;28;20218;-84
2023/03/21 00:28:30;;;;;;;1.50;1.40;;;;;;;;;;5050906;28;20297;-83
2023/03/21 00:30:59;;;;;;;1.55;1.45;;;;;;;;;;5049063;28;20301;-83
2023/03/21 00:33:27;;;;;;;2.35;1.75;;;;;;;;;;5051191;28;20724;-84
2023/03/21 00:35:54;;;;;;;2.80;1.98;;;;;;;;;;5051675;28;20212;-84
2023/03/21 00:38:23;;;;;;;1.67;1.58;;;;;;;;;;5055369;28;20220;-83
2023/03/21 00:40:51;;;;;;;3.33;3.03;;;;;;;;;;5055983;28;20244;-84
2023/03/21 00:43:22;;;;;;;2.20;2.00;;;;;;;;;;5055673;28;20198;-84
2023/03/21 00:45:51;;;;;;;1.60;1.50;;;;;;;;;;5056146;28;20657;-83
2023/03/21 00:48:19;;;;;;;2.25;2.00;;;;;;;;;;5080110;22;20304;-80
2023/03/21 00:50:47;;;;;;;2.55;2.35;;;;;;;;;;5060291;28;20217;-81
2023/03/21 00:53:15;;;;;;;2.25;1.88;;;;;;;;;;5049293;28;20197;-82
2023/03/21 00:55:43;;;;;;;1.65;1.50;;;;;;;;;;5052080;28;20305;-80
2023/03/21 00:58:10;;;;;;;2.53;2.33;;;;;;;;;;5039467;28;20309;-82
2023/03/21 01:00:40;;;;;;;1.73;1.55;;;;;;;;;;5040620;28;20261;-82
2023/03/21 01:03:10;;;;;;;2.33;1.92;;;;;;;;;;5054743;28;20265;-82
2023/03/21 01:08:26;;;;;;;2.63;1.63;;;;;;;;;;5036471;28;20252;-82
2023/03/21 01:10:55;;;;;;;1.75;1.65;;;;;;;;;;5039597;28;20244;-81
2023/03/21 01:13:25;;;;;;;1.77;1.67;;;;;;;;;;5041854;28;20213;-82
2023/03/21 01:15:56;;;;;;;1.70;1.60;;;;;;;;;;5037901;28;20281;-82
2023/03/21 01:18:27;;;;;;;1.48;1.38;;;;;;;;;;5036374;28;20222;-81
2023/03/21 01:20:56;;;;;;;2.83;1.55;;;;;;;;;;5051227;28;20219;-82
2023/03/21 01:23:26;;;;;;;1.60;1.50;;;;;;;;;;5043706;28;20201;-81
2023/03/21 01:25:55;;;;;;;1.90;1.70;;;;;;;;;;5042886;28;20204;-83
2023/03/21 01:28:24;;;;;;;2.42;1.67;;;;;;;;;;5044480;28;20228;-83
2023/03/21 01:30:54;;;;;;;1.60;1.50;;;;;;;;;;5037983;28;20208;-82
2023/03/21 01:33:22;;;;;;;1.70;1.60;;;;;;;;;;5047843;28;20707;-79
2023/03/21 01:35:50;;;;;;;2.60;1.80;;;;;;;;;;5040429;28;20222;-82
2023/03/21 01:38:17;;;;;;;1.88;1.60;;;;;;;;;;5035550;28;20218;-81
2023/03/21 01:40:47;;;;;;;2.10;1.80;;;;;;;;;;5035040;28;20289;-81
2023/03/21 01:43:25;;;;;;;1.80;1.60;;;;;;;;;;5042643;28;20194;-81
2023/03/21 01:46:36;;;;;;;1.65;1.55;;;;;;;;;;5046622;28;20289;-81
2023/03/21 01:49:07;;;;;;;1.90;1.60;;;;;;;;;;5031580;28;20230;-82
2023/03/21 01:51:39;;;;;;;2.75;2.47;;;;;;;;;;5035763;28;20233;-82
2023/03/21 01:54:10;;;;;;;2.45;2.00;;;;;;;;;;5041142;28;20210;-81
2023/03/21 01:56:40;;;;;;;5.18;3.05;;;;;;;;;;5048362;28;20658;-82
2023/03/21 01:59:11;;;;;;;3.53;2.47;;;;;;;;;;5041849;28;20218;-80
2023/03/21 02:01:41;;;;;;;2.33;2.13;;;;;;;;;;5047378;28;20225;-82
2023/03/21 02:04:09;;;;;;;2.72;1.92;;;;;;;;;;5041455;28;20209;-81
2023/03/21 02:06:43;;;;;;;2.67;1.80;;;;;;;;;;5048075;28;20230;-80
2023/03/21 02:09:16;;;;;;;3.30;2.20;;;;;;;;;;5035175;28;20231;-80
2023/03/21 02:11:46;;;;;;;1.90;1.70;;;;;;;;;;5035500;28;20230;-81
2023/03/21 02:14:17;;;;;;;4.00;2.05;;;;;;;;;;5047193;28;20198;-79
2023/03/21 02:16:55;;;;;;;2.20;2.00;;;;;;;;;;5048923;28;20198;-80
2023/03/21 02:20:16;;;;;;;6.63;2.45;;;;;;;;;;5053768;28;20226;-81
2023/03/21 02:23:15;;;;;;;6.15;2.22;;;;;;;;;;4989016;28;20205;-80
2023/03/21 02:26:23;;;;;;;2.40;1.92;;;;;;;;;;5043770;28;20284;-80
2023/03/21 02:28:58;;;;;;;3.38;2.20;;;;;;;;;;5043175;28;20280;-80
2023/03/21 02:31:36;;;;;;;2.33;1.80;;;;;;;;;;5040995;28;20198;-81
2023/03/21 02:34:26;;;;;;;2.00;1.80;;;;;;;;;;5042059;28;20206;-80
2023/03/21 02:37:05;;;;;;;1.60;1.50;;;;;;;;;;5045768;28;20667;-79
2023/03/21 02:39:45;;;;;;;2.58;1.90;;;;;;;;;;5053649;28;20251;-78
2023/03/21 02:42:20;;;;;;;3.00;1.77;;;;;;;;;;5035381;28;20202;-78
2023/03/21 02:44:53;;;;;;;1.98;1.73;;;;;;;;;;5036327;28;20206;-79
2023/03/21 02:47:25;;;;;;;2.20;1.90;;;;;;;;;;5044247;28;20198;-79
2023/03/21 02:49:58;;;;;;;3.88;1.90;;;;;;;;;;5038298;28;20202;-80
2023/03/21 02:52:29;;;;;;;1.85;1.75;;;;;;;;;;5046054;28;20225;-81
2023/03/21 02:54:57;;;;;;;3.03;2.00;;;;;;;;;;5042063;28;20716;-79
2023/03/21 02:57:25;;;;;;;1.77;1.67;;;;;;;;;;5039872;28;20216;-81
2023/03/21 02:59:53;;;;;;;2.47;2.28;;;;;;;;;;5052848;28;20660;-79
2023/03/21 03:02:25;;;;;;;1.75;1.52;;;;;;;;;;5045508;28;20277;-79
2023/03/21 03:04:52;;;;;;;2.67;1.73;;;;;;;;;;5043414;28;20210;-80
2023/03/21 03:07:37;;;;;;;1.60;1.50;;;;;;;;;;5055916;28;20197;-79
2023/03/21 03:10:28;;;;;;;2.22;1.70;;;;;;;;;;5055252;28;20207;-80
2023/03/21 03:13:06;;;;;;;1.77;1.60;;;;;;;;;;5045147;28;20313;-79
2023/03/21 03:15:44;;;;;;;1.88;1.77;;;;;;;;;;5049079;28;20195;-82
2023/03/21 03:18:17;;;;;;;2.85;2.20;;;;;;;;;;5046388;28;20226;-82
2023/03/21 03:20:53;;;;;;;3.08;2.78;;;;;;;;;;5037428;28;20232;-82
2023/03/21 03:23:28;;;;;;;2.85;2.30;;;;;;;;;;5040471;28;20249;-82
2023/03/21 03:26:00;;;;;;;4.88;2.40;;;;;;;;;;5049022;28;20197;-81
2023/03/21 03:28:31;;;;;;;3.50;2.38;;;;;;;;;;5056709;28;20217;-81
2023/03/21 03:31:00;;;;;;;3.03;2.40;;;;;;;;;;5042558;28;20229;-82
2023/03/21 03:33:28;;;;;;;2.65;2.08;;;;;;;;;;5049893;28;20308;-81
2023/03/21 03:35:57;;;;;;;2.30;1.85;;;;;;;;;;5050505;28;20198;-81
2023/03/21 03:38:27;;;;;;;2.17;1.95;;;;;;;;;;5044908;28;20761;-79
2023/03/21 03:40:58;;;;;;;4.05;2.13;;;;;;;;;;5041597;28;20280;-81
2023/03/21 03:43:32;;;;;;;2.25;2.05;;;;;;;;;;5051169;28;20198;-82
2023/03/21 03:46:09;;;;;;;1.92;1.73;;;;;;;;;;5050164;28;20209;-81
2023/03/21 03:48:45;;;;;;;2.17;2.08;;;;;;;;;;5044998;28;20226;-81
2023/03/21 03:51:18;;;;;;;2.80;2.60;;;;;;;;;;5042483;28;20209;-81
2023/03/21 03:53:51;;;;;;;5.00;2.42;;;;;;;;;;5043924;28;20234;-80
2023/03/21 03:56:19;;;;;;;2.35;2.13;;;;;;;;;;5040703;28;20293;-81
2023/03/21 03:58:47;;;;;;;5.97;2.33;;;;;;;;;;5046231;28;20228;-79
2023/03/21 04:01:14;;;;;;;2.47;1.80;;;;;;;;;;5049253;28;20633;-79
2023/03/21 04:03:44;;;;;;;1.90;1.60;;;;;;;;;;5044548;28;20216;-79
2023/03/21 04:06:12;;;;;;;2.33;2.13;;;;;;;;;;5051837;28;20203;-80
2023/03/21 04:08:39;;;;;;;1.77;1.50;;;;;;;;;;5037824;28;20720;-80
2023/03/21 04:11:09;;;;;;;2.83;2.53;;;;;;;;;;5042649;28;20229;-80
2023/03/21 04:13:36;;;;;;;1.83;1.70;;;;;;;;;;5044977;28;20218;-80
2023/03/21 04:16:04;;;;;;;3.38;2.30;;;;;;;;;;5040212;28;20213;-80
2023/03/21 04:18:32;;;;;;;2.92;2.17;;;;;;;;;;5056513;28;20217;-81
2023/03/21 04:21:00;;;;;;;2.30;2.10;;;;;;;;;;5046514;28;20220;-81
2023/03/21 04:23:28;;;;;;;3.35;2.42;;;;;;;;;;5048676;28;20221;-80
2023/03/21 04:25:55;;;;;;;3.10;2.20;;;;;;;;;;5057331;28;20607;-82
2023/03/21 04:28:24;;;;;;;1.50;1.40;;;;;;;;;;5055728;28;20305;-81
2023/03/21 04:30:51;;;;;;;4.28;2.33;;;;;;;;;;5050379;28;20197;-82
2023/03/21 04:33:19;;;;;;;2.88;2.13;;;;;;;;;;5049874;28;20232;-80
2023/03/21 04:35:46;;;;;;;2.38;1.90;;;;;;;;;;5047888;28;20226;-79
2023/03/21 04:38:14;;;;;;;2.58;2.20;;;;;;;;;;5052109;28;20728;-79
2023/03/21 04:40:41;;;;;;;3.55;2.35;;;;;;;;;;5037656;28;20201;-79
2023/03/21 04:43:09;;;;;;;3.47;2.22;;;;;;;;;;5036629;28;20194;-79
2023/03/21 04:45:38;;;;;;;3.00;2.00;;;;;;;;;;5042701;28;20205;-79
2023/03/21 04:48:06;;;;;;;2.50;2.28;;;;;;;;;;5050004;28;20312;-79
2023/03/21 04:50:33;;;;;;;3.15;2.20;;;;;;;;;;5041109;28;20253;-79
2023/03/21 04:53:01;;;;;;;5.80;3.20;;;;;;;;;;5039738;28;20214;-79
2023/03/21 04:55:30;;;;;;;2.58;2.03;;;;;;;;;;5043464;28;20198;-80
2023/03/21 04:57:58;;;;;;;4.57;2.67;;;;;;;;;;5037731;28;20226;-80
2023/03/21 05:00:26;;;;;;;2.50;2.30;;;;;;;;;;5043589;28;20206;-79
2023/03/21 05:02:56;;;;;;;2.72;2.53;;;;;;;;;;5040663;28;20234;-79
2023/03/21 05:05:24;;;;;;;2.10;1.90;;;;;;;;;;5040531;28;20197;-79
2023/03/21 05:07:51;;;;;;;2.58;2.00;;;;;;;;;;5044182;28;20228;-79
2023/03/21 05:10:19;;;;;;;1.90;1.65;;;;;;;;;;5038916;28;20202;-81
2023/03/21 05:12:46;;;;;;;3.58;2.08;;;;;;;;;;5038417;28;20222;-80
2023/03/21 05:15:14;;;;;;;2.35;1.92;;;;;;;;;;5042945;28;20247;-80
2023/03/21 05:17:41;;;;;;;2.30;2.10;;;;;;;;;;5046418;28;20709;-79
2023/03/21 05:20:14;;;;;;;3.05;1.90;;;;;;;;;;5044845;28;20601;-78
2023/03/21 05:22:45;;;;;;;2.92;2.60;;;;;;;;;;5037157;28;20654;-80
2023/03/21 05:25:13;;;;;;;2.35;1.95;;;;;;;;;;5042628;28;20218;-79
2023/03/21 05:27:44;;;;;;;4.30;2.05;;;;;;;;;;5041878;28;20313;-79
2023/03/21 05:30:14;;;;;;;2.38;2.15;;;;;;;;;;5048931;28;20206;-79
2023/03/21 05:32:42;;;;;;;2.08;1.90;;;;;;;;;;5034411;28;20209;-79
2023/03/21 05:35:11;;;;;;;2.40;2.20;;;;;;;;;;5044626;28;20232;-79
2023/03/21 05:37:39;;;;;;;3.38;2.13;;;;;;;;;;5043231;28;20224;-79
2023/03/21 05:40:08;;;;;;;2.83;2.25;;;;;;;;;;5039964;28;20256;-79
2023/03/21 05:42:36;;;;;;;3.35;2.33;;;;;;;;;;5041465;28;20204;-83
2023/03/21 05:45:03;;;;;;;4.25;2.50;;;;;;;;;;5042800;28;20721;-82
2023/03/21 05:47:31;;;;;;;4.72;2.72;;;;;;;;;;5041872;28;20250;-83
2023/03/21 05:49:58;;;;;;;2.97;2.78;;;;;;;;;;5036224;28;20210;-83
2023/03/21 05:52:28;;;;;;;2.90;2.25;;;;;;;;;;5041271;28;20585;-82
2023/03/21 05:54:56;;;;;;;2.55;2.30;;;;;;;;;;5043217;28;20705;-84
2023/03/21 05:57:23;;;;;;;6.47;2.33;;;;;;;;;;5034952;28;20633;-82
2023/03/21 05:59:50;;;;;;;3.50;2.22;;;;;;;;;;5038962;28;20206;-84
2023/03/21 06:02:18;;;;;;;3.22;2.80;;;;;;;;;;5040639;28;20571;-83
2023/03/21 06:04:45;;;;;;;4.05;2.25;;;;;;;;;;5037381;28;20646;-80
2023/03/21 06:07:13;;;;;;;2.38;2.17;;;;;;;;;;5033992;28;20280;-82
2023/03/21 06:09:42;;;;;;;4.68;2.92;;;;;;;;;;5046763;28;20262;-81
2023/03/21 06:12:09;;;;;;;3.10;2.20;;;;;;;;;;5036089;28;20230;-82
2023/03/21 06:14:37;;;;;;;2.42;2.22;;;;;;;;;;5035961;28;20309;-82
2023/03/21 06:17:04;;;;;;;3.78;2.85;;;;;;;;;;5041306;28;20203;-83
2023/03/21 06:19:32;;;;;;;4.18;2.80;;;;;;;;;;5042982;28;20209;-83
2023/03/21 06:21:59;;;;;;;3.40;1.92;;;;;;;;;;5059582;28;20228;-82
2023/03/21 06:24:27;;;;;;;2.20;2.10;;;;;;;;;;5049816;28;20277;-83
2023/03/21 06:26:56;;;;;;;2.90;2.63;;;;;;;;;;5040622;28;20310;-82
2023/03/21 06:29:24;;;;;;;2.30;2.10;;;;;;;;;;5043195;28;20221;-82
2023/03/21 06:31:51;;;;;;;3.60;2.40;;;;;;;;;;5043752;28;20209;-83
2023/03/21 06:34:19;;;;;;;2.72;2.28;;;;;;;;;;5051603;28;20807;-82
2023/03/21 06:36:48;;;;;;;2.30;2.10;;;;;;;;;;5052177;28;20201;-82
2023/03/21 06:39:15;;;;;;;2.47;2.28;;;;;;;;;;5051156;28;20217;-83
2023/03/21 06:41:43;;;;;;;3.70;2.67;;;;;;;;;;5042331;28;20202;-82
2023/03/21 06:44:12;;;;;;;4.50;2.47;;;;;;;;;;5036321;28;20197;-82
2023/03/21 06:46:40;;;;;;;2.33;1.80;;;;;;;;;;5043529;28;20202;-81
2023/03/21 06:49:19;;;;;;;2.65;2.17;;;;;;;;;;5061267;22;20225;-80
2023/03/21 06:51:48;;;;;;;4.95;2.20;;;;;;;;;;5027474;28;20209;-81
2023/03/21 06:54:17;;;;;;;2.88;2.03;;;;;;;;;;5048279;28;20198;-81
2023/03/21 06:56:45;;;;;;;2.83;2.50;;;;;;;;;;5031375;28;20213;-80
2023/03/21 06:59:14;;;;;;;2.40;2.20;;;;;;;;;;5032905;28;20305;-81
2023/03/21 07:01:42;;;;;;;1.90;1.70;;;;;;;;;;5032371;28;20205;-81
2023/03/21 07:04:10;;;;;;;3.90;2.50;;;;;;;;;;5033314;28;20281;-80
2023/03/21 07:06:38;;;;;;;5.18;2.30;;;;;;;;;;5030722;28;20229;-80
2023/03/21 07:09:06;;;;;;;3.75;3.13;;;;;;;;;;5030286;28;20218;-81
2023/03/21 07:11:35;;;;;;;3.63;2.92;;;;;;;;;;5026344;28;20222;-81
2023/03/21 07:14:02;;;;;;;4.45;2.60;;;;;;;;;;5032856;28;20202;-81
2023/03/21 07:16:31;;;;;;;3.15;2.83;;;;;;;;;;5026623;28;20761;-81
2023/03/21 07:18:59;;;;;;;3.63;2.58;;;;;;;;;;5035340;28;20228;-81
2023/03/21 07:21:27;;;;;;;3.78;2.65;;;;;;;;;;5032332;28;20290;-81
2023/03/21 07:23:54;;;;;;;2.97;2.63;;;;;;;;;;5031444;28;20674;-81
2023/03/21 07:26:22;;;;;;;2.65;2.45;;;;;;;;;;5032459;28;20203;-81
2023/03/21 07:28:49;;;;;;;2.53;2.33;;;;;;;;;;5031562;28;20231;-81
2023/03/21 07:31:18;;;;;;;4.32;2.60;;;;;;;;;;5032162;28;20194;-81
2023/03/21 07:33:50;;;;;;;2.90;2.35;;;;;;;;;;5028424;28;20321;-80
2023/03/21 07:36:18;;;;;;;4.13;3.15;;;;;;;;;;5038082;28;20305;-81
2023/03/21 07:38:46;;;;;;;6.38;3.00;;;;;;;;;;5031117;28;20309;-81
2023/03/21 07:41:14;;;;;;;3.30;2.60;;;;;;;;;;5033621;28;20681;-82
2023/03/21 07:43:41;;;;;;;6.47;3.35;;;;;;;;;;5034412;28;20311;-81
2023/03/21 07:46:09;;;;;;;5.32;3.17;;;;;;;;;;5026056;28;20195;-81
2023/03/21 07:48:37;;;;;;;4.68;3.35;;;;;;;;;;5037346;28;20613;-81
2023/03/21 07:51:06;;;;;;;5.32;3.67;;;;;;;;;;5033106;28;20237;-86
2023/03/21 07:53:34;;;;;;;5.95;4.13;;;;;;;;;;5034952;28;20297;-81
2023/03/21 07:56:01;;;;;;;5.93;3.25;;;;;;;;;;5032953;28;20237;-81
2023/03/21 07:58:29;;;;;;;4.82;2.90;;;;;;;;;;5030688;28;20313;-81
2023/03/21 08:00:58;;;;;;;6.75;3.30;;;;;;;;;;5034879;28;20221;-81
2023/03/21 08:03:28;;;;;;;5.10;3.22;;;;;;;;;;5025983;28;20206;-81
2023/03/21 08:05:56;;;;;;;5.63;3.60;;;;;;;;;;5036823;28;20289;-80
2023/03/21 08:08:25;;;;;;;5.75;3.28;;;;;;;;;;5035053;28;20229;-80
2023/03/21 08:10:52;;;;;;;4.38;3.63;;;;;;;;;;5031938;28;20814;-82
2023/03/21 08:13:20;;;;;;;6.20;3.88;;;;;;;;;;5034992;28;20201;-82
2023/03/21 08:15:48;;;;;;;6.15;3.17;;;;;;;;;;5029104;28;20312;-81
2023/03/21 08:18:15;;;;;;;5.40;3.75;;;;;;;;;;5034603;28;20233;-81
2023/03/21 08:20:43;;;;;;;7.85;4.47;;;;;;;;;;5033624;28;20294;-81
2023/03/21 08:23:10;;;;;;;3.50;3.20;;;;;;;;;;5033888;28;20226;-82
2023/03/21 08:25:39;;;;;;;5.80;4.40;;;;;;;;;;5032590;28;20206;-81
2023/03/21 08:28:07;;;;;;;5.57;4.22;;;;;;;;;;5026863;28;20218;-80
2023/03/21 08:30:34;;;;;;;9.50;4.88;;;;;;;;;;5024370;28;20207;-82
2023/03/21 08:33:02;;;;;;;8.13;4.65;;;;;;;;;;5033524;28;20289;-82
2023/03/21 08:35:30;;;;;;;7.55;3.72;;;;;;;;;;5030881;28;20769;-81
2023/03/21 08:37:58;;;;;;;5.10;3.92;;;;;;;;;;5035333;28;20216;-84
2023/03/21 08:40:26;;;;;;;5.40;3.90;;;;;;;;;;5029555;28;20738;-81
2023/03/21 08:42:54;;;;;;;6.03;3.90;;;;;;;;;;5026581;28;20278;-81
2023/03/21 08:45:22;;;;;;;4.18;3.78;;;;;;;;;;5026821;28;20208;-81
2023/03/21 08:47:50;;;;;;;3.88;3.55;;;;;;;;;;5034107;28;20209;-79
2023/03/21 08:50:20;;;;;;;3.17;2.75;;;;;;;;;;5036644;28;20198;-80
2023/03/21 08:52:47;;;;;;;3.40;2.97;;;;;;;;;;5034913;28;20213;-83
2023/03/21 08:55:16;;;;;;;4.68;3.25;;;;;;;;;;5035535;28;20274;-81
2023/03/21 08:57:44;;;;;;;6.65;3.33;;;;;;;;;;5029373;28;20244;-83
2023/03/21 09:00:16;;;;;;;5.88;3.65;;;;;;;;;;5025970;28;20202;-81
2023/03/21 09:02:48;;;;;;;4.97;3.58;;;;;;;;;;5036968;28;20285;-82
2023/03/21 09:05:16;;;;;;;3.13;2.83;;;;;;;;;;5036739;28;20198;-82
2023/03/21 09:07:44;;;;;;;4.13;3.60;;;;;;;;;;5034516;28;20308;-82
2023/03/21 09:10:14;;;;;;;5.70;3.33;;;;;;;;;;5024347;28;20811;-88
2023/03/21 09:12:42;;;;;;;4.93;3.00;;;;;;;;;;5021717;28;20691;-79
2023/03/21 09:15:13;;;;;;;4.22;3.47;;;;;;;;;;5030680;28;20687;-81
2023/03/21 09:17:42;;;;;;;4.20;3.45;;;;;;;;;;5033016;28;20229;-82
2023/03/21 09:20:17;;;;;;;4.35;3.25;;;;;;;;;;5031814;28;20206;-80
2023/03/21 09:22:46;;;;;;;9.05;3.80;;;;;;;;;;5035005;28;20201;-82
2023/03/21 09:25:14;;;;;;;5.03;3.10;;;;;;;;;;5033379;28;20203;-81
2023/03/21 09:27:44;;;;;;;5.13;4.07;;;;;;;;;;5032737;28;20205;-81
2023/03/21 09:30:15;;;;;;;5.70;3.83;;;;;;;;;;5032780;28;20202;-81
2023/03/21 09:32:48;;;;;;;4.70;3.88;;;;;;;;;;5027764;28;20226;-80
2023/03/21 09:35:17;;;;;;;3.83;3.45;;;;;;;;;;5024364;28;20241;-81
2023/03/21 09:37:46;;;;;;;5.85;3.15;;;;;;;;;;5024866;28;20226;-81
2023/03/21 09:40:20;;;;;;;4.28;3.05;;;;;;;;;;5033168;28;20194;-81
2023/03/21 09:42:58;;;;;;;4.30;2.65;;;;;;;;;;5022201;28;20198;-83
2023/03/21 09:45:35;;;;;;;3.95;3.55;;;;;;;;;;5035224;28;20198;-84
2023/03/21 09:48:06;;;;;;;4.93;3.78;;;;;;;;;;5037049;28;20709;-82
2023/03/21 09:50:37;;;;;;;4.35;3.95;;;;;;;;;;5030483;28;20206;-83
2023/03/21 09:53:10;;;;;;;7.03;3.67;;;;;;;;;;5035450;28;20221;-86
2023/03/21 09:55:40;;;;;;;6.60;4.32;;;;;;;;;;5033983;28;20202;-83
2023/03/21 09:58:20;;;;;;;4.97;4.13;;;;;;;;;;5033074;28;20652;-83
2023/03/21 10:00:55;;;;;;;4.35;2.38;;;;;;;;;;5035870;28;20217;-83
2023/03/21 10:03:25;;;;;;;5.93;3.45;;;;;;;;;;5036847;28;20198;-84
2023/03/21 10:05:57;;;;;;;6.32;3.28;;;;;;;;;;5035572;28;20281;-83
2023/03/21 10:08:29;;;;;;;4.43;2.97;;;;;;;;;;5036160;28;20225;-82
2023/03/21 10:11:01;;;;;;;8.05;3.85;;;;;;;;;;5035052;28;20198;-83
2023/03/21 10:13:32;;;;;;;4.30;3.00;;;;;;;;;;5031859;28;20203;-82
2023/03/21 10:16:09;;;;;;;7.72;4.47;;;;;;;;;;5030000;28;20205;-82
2023/03/21 10:18:37;;;;;;;5.65;3.83;;;;;;;;;;5029638;28;20225;-81
2023/03/21 10:21:06;;;;;;;6.22;3.63;;;;;;;;;;5032946;28;20248;-82
2023/03/21 10:23:34;;;;;;;4.50;3.40;;;;;;;;;;5028819;28;20195;-81
2023/03/21 10:26:07;;;;;;;3.10;2.33;;;;;;;;;;5032955;28;20730;-82
2023/03/21 10:28:39;;;;;;;3.60;3.30;;;;;;;;;;5033195;28;20596;-82
2023/03/21 10:31:09;;;;;;;3.95;3.10;;;;;;;;;;5035072;28;20229;-82
2023/03/21 10:33:40;;;;;;;4.55;2.30;;;;;;;;;;5032409;28;20217;-82
2023/03/21 10:36:12;;;;;;;4.03;3.40;;;;;;;;;;5021370;28;20205;-82
2023/03/21 10:38:44;;;;;;;5.78;3.90;;;;;;;;;;5025460;28;20228;-81
2023/03/21 10:41:12;;;;;;;6.47;3.35;;;;;;;;;;5031783;28;20206;-82
2023/03/21 10:43:44;;;;;;;6.63;4.95;;;;;;;;;;5031214;28;20289;-81
2023/03/21 10:46:19;;;;;;;4.85;3.30;;;;;;;;;;5026627;28;20202;-81
2023/03/21 10:48:52;;;;;;;5.05;3.35;;;;;;;;;;5031918;28;20226;-81
2023/03/21 10:51:23;;;;;;;3.63;2.85;;;;;;;;;;5030684;28;20580;-81
2023/03/21 10:53:54;;;;;;;2.33;2.13;;;;;;;;;;5031863;28;20202;-81
2023/03/21 10:56:25;;;;;;;2.40;2.10;;;;;;;;;;5025231;28;20202;-81
2023/03/21 10:58:53;;;;;;;3.42;2.33;;;;;;;;;;5032029;28;20218;-82
2023/03/21 11:01:30;;;;;;;3.30;3.00;;;;;;;;;;5031342;28;20221;-82
2023/03/21 11:04:00;;;;;;;3.83;3.08;;;;;;;;;;5030311;28;20207;-83
2023/03/21 11:06:32;;;;;;;4.00;2.72;;;;;;;;;;5024933;28;20204;-83
2023/03/21 11:09:08;;;;;;;3.13;2.30;;;;;;;;;;5032740;28;20304;-84
2023/03/21 11:11:39;;;;;;;4.72;3.25;;;;;;;;;;5024261;28;20202;-82
2023/03/21 11:14:10;;;;;;;4.85;3.42;;;;;;;;;;5029528;28;20285;-82
2023/03/21 11:16:42;;;;;;;4.32;3.50;;;;;;;;;;5028323;28;20285;-81
2023/03/21 11:19:16;;;;;;;5.50;3.67;;;;;;;;;;5042323;28;20230;-81
2023/03/21 11:21:43;;;;;;;3.70;2.75;;;;;;;;;;5033189;28;20230;-81
2023/03/21 11:24:15;;;;;;;5.70;2.67;;;;;;;;;;5029219;28;20855;-80
2023/03/21 11:26:44;;;;;;;4.68;3.15;;;;;;;;;;5028732;28;20194;-80
2023/03/21 11:29:30;;;;;;;3.05;2.40;;;;;;;;;;5033475;28;20240;-79
2023/03/21 11:32:01;;;;;;;4.57;3.13;;;;;;;;;;5032911;28;20285;-80
2023/03/21 11:34:38;;;;;;;3.90;3.50;;;;;;;;;;5034411;28;20209;-80
2023/03/21 11:37:06;;;;;;;4.30;3.90;;;;;;;;;;5019755;28;20190;-80
2023/03/21 11:39:39;;;;;;;2.53;2.33;;;;;;;;;;5028650;28;20254;-80
2023/03/21 11:42:30;;;;;;;2.88;2.20;;;;;;;;;;5034225;28;20202;-80
2023/03/21 11:45:11;;;;;;;4.45;2.13;;;;;;;;;;5034069;28;20198;-80
2023/03/21 11:47:40;;;;;;;3.83;2.10;;;;;;;;;;5035349;28;20221;-82
2023/03/21 11:50:25;;;;;;;2.13;1.90;;;;;;;;;;5035529;28;20209;-82
2023/03/21 11:53:13;;;;;;;3.15;2.20;;;;;;;;;;5028926;28;20209;-82
2023/03/21 11:55:52;;;;;;;5.03;2.60;;;;;;;;;;5027815;28;20206;-82
2023/03/21 11:58:33;;;;;;;2.97;2.50;;;;;;;;;;5033634;28;20226;-82
2023/03/21 12:01:09;;;;;;;3.58;2.40;;;;;;;;;;5034713;28;20199;-83
2023/03/21 12:04:03;;;;;;;2.97;2.65;;;;;;;;;;5034867;28;20202;-83
2023/03/21 12:06:36;;;;;;;3.28;2.10;;;;;;;;;;5034742;28;20204;-83
2023/03/21 12:09:22;;;;;;;5.85;2.35;;;;;;;;;;5034588;28;20218;-82
2023/03/21 12:12:01;;;;;;;2.35;2.15;;;;;;;;;;5028505;28;20202;-82
2023/03/21 12:14:37;;;;;;;2.53;2.33;;;;;;;;;;5035849;28;20202;-82
2023/03/21 12:17:12;;;;;;;7.43;4.63;;;;;;;;;;5030085;28;20209;-81
2023/03/21 12:20:08;;;;;;;4.45;3.58;;;;;;;;;;5028088;28;20225;-81
2023/03/21 12:22:45;;;;;;;3.03;2.72;;;;;;;;;;5034819;28;20293;-83
2023/03/21 12:25:17;;;;;;;5.68;2.92;;;;;;;;;;5026908;28;20257;-82
2023/03/21 12:27:53;;;;;;;4.43;2.67;;;;;;;;;;5031794;28;20201;-83
2023/03/21 12:30:33;;;;;;;2.92;2.63;;;;;;;;;;5034260;28;20197;-82
2023/03/21 12:33:20;;;;;;;5.22;2.97;;;;;;;;;;5036449;28;20587;-83
2023/03/21 12:36:02;;;;;;;3.40;3.03;;;;;;;;;;5029807;28;20737;-82
2023/03/21 12:38:38;;;;;;;3.35;2.53;;;;;;;;;;5025408;28;20230;-82
2023/03/21 12:41:24;;;;;;;3.97;3.00;;;;;;;;;;5031610;28;20712;-83
2023/03/21 12:43:56;;;;;;;9.32;2.75;;;;;;;;;;5032299;28;20762;-83
2023/03/21 12:46:29;;;;;;;2.85;2.60;;;;;;;;;;5031912;28;20199;-83
2023/03/21 12:49:00;;;;;;;5.07;2.72;;;;;;;;;;5034390;28;20258;-83
2023/03/21 12:51:32;;;;;;;3.70;2.65;;;;;;;;;;5033665;28;20209;-83
2023/03/21 12:54:07;;;;;;;7.78;2.90;;;;;;;;;;5027960;28;20844;-82
2023/03/21 12:56:40;;;;;;;5.07;3.25;;;;;;;;;;5026909;28;20674;-83
2023/03/21 12:59:22;;;;;;;5.57;3.67;;;;;;;;;;5031629;28;20226;-82
2023/03/21 13:01:51;;;;;;;4.88;3.15;;;;;;;;;;5030686;28;20225;-83
2023/03/21 13:04:41;;;;;;;4.75;3.85;;;;;;;;;;5025939;28;20207;-83
2023/03/21 13:07:13;;;;;;;2.92;2.63;;;;;;;;;;5034378;28;20556;-83
2023/03/21 13:09:42;;;;;;;4.88;3.38;;;;;;;;;;5034388;28;20229;-83
2023/03/21 13:12:24;;;;;;;3.47;2.92;;;;;;;;;;5025400;28;20209;-83
2023/03/21 13:15:03;;;;;;;4.50;2.75;;;;;;;;;;5034264;28;20246;-83
2023/03/21 13:17:37;;;;;;;4.97;2.72;;;;;;;;;;5034316;28;20202;-83
2023/03/21 13:20:13;;;;;;;6.25;3.08;;;;;;;;;;5040367;28;20264;-82
2023/03/21 13:22:42;;;;;;;4.25;3.38;;;;;;;;;;5025303;28;20686;-83
2023/03/21 13:25:19;;;;;;;4.40;3.08;;;;;;;;;;5033906;28;20289;-82
2023/03/21 13:27:53;;;;;;;4.45;3.88;;;;;;;;;;5028141;28;20203;-83
2023/03/21 13:30:24;;;;;;;3.40;2.78;;;;;;;;;;5031907;28;20198;-82
2023/03/21 13:32:59;;;;;;;3.90;3.40;;;;;;;;;;5025312;28;20209;-82
2023/03/21 13:35:36;;;;;;;4.68;3.97;;;;;;;;;;5034045;28;20200;-83
2023/03/21 13:38:11;;;;;;;3.65;3.08;;;;;;;;;;5033952;28;20214;-82
2023/03/21 13:40:43;;;;;;;4.85;3.47;;;;;;;;;;5034113;28;20194;-83
2023/03/21 13:43:34;;;;;;;3.63;3.22;;;;;;;;;;5024756;28;20205;-83
2023/03/21 13:46:07;;;;;;;4.78;3.83;;;;;;;;;;5033984;28;20574;-83
2023/03/21 13:48:44;;;;;;;5.05;3.20;;;;;;;;;;5038410;28;20229;-83
2023/03/21 13:51:12;;;;;;;3.13;2.83;;;;;;;;;;5033388;28;20306;-83
2023/03/21 13:53:42;;;;;;;4.18;3.00;;;;;;;;;;5025995;28;20281;-83
2023/03/21 13:56:24;;;;;;;4.20;2.88;;;;;;;;;;5034264;28;20205;-83
2023/03/21 13:59:01;;;;;;;5.82;3.10;;;;;;;;;;5028079;28;20236;-83
2023/03/21 14:01:40;;;;;;;4.40;2.55;;;;;;;;;;5033208;28;20272;-82
2023/03/21 14:04:48;;;;;;;2.92;2.55;;;;;;;;;;5025457;28;20643;-83
2023/03/21 14:07:24;;;;;;;3.20;2.80;;;;;;;;;;5013929;28;20210;-83
2023/03/21 14:09:55;;;;;;;3.63;2.60;;;;;;;;;;5013215;28;20302;-83
2023/03/21 14:12:27;;;;;;;3.50;2.25;;;;;;;;;;5019350;28;20198;-83
2023/03/21 14:14:59;;;;;;;3.15;2.40;;;;;;;;;;5028113;28;20202;-83
2023/03/21 14:17:29;;;;;;;4.05;2.85;;;;;;;;;;5033511;28;20209;-83
2023/03/21 14:20:05;;;;;;;2.65;2.20;;;;;;;;;;5039383;28;20240;-82
2023/03/21 14:22:32;;;;;;;3.25;2.10;;;;;;;;;;5029276;28;20198;-82
2023/03/21 14:25:03;;;;;;;2.50;2.30;;;;;;;;;;5028020;28;20577;-82
2023/03/21 14:27:33;;;;;;;2.25;2.03;;;;;;;;;;5029345;28;20207;-82
2023/03/21 14:30:02;;;;;;;2.20;2.00;;;;;;;;;;5028383;28;20559;-82
2023/03/21 14:32:30;;;;;;;2.00;1.85;;;;;;;;;;5028833;28;20548;-82
2023/03/21 14:35:04;;;;;;;3.42;2.33;;;;;;;;;;5027475;28;20624;-82
2023/03/21 14:37:44;;;;;;;2.00;1.80;;;;;;;;;;5032376;28;20218;-82
2023/03/21 14:40:58;;;;;;;1.83;1.73;;;;;;;;;;5032293;28;20718;-81
2023/03/21 14:46:30;;;;;;;14.38;12.75;;;;;;;;;;5029535;28;20280;-81
2023/03/21 14:49:30;;;;;;;4.13;3.72;;;;;;;;;;5038993;28;20229;-82
2023/03/21 14:52:01;;;;;;;2.70;2.22;;;;;;;;;;5035479;28;20205;-80
2023/03/21 14:54:30;;;;;;;3.38;3.08;;;;;;;;;;5032682;28;20290;-82
2023/03/21 14:57:04;;;;;;;1.73;1.63;;;;;;;;;;5036626;28;20624;-82
2023/03/21 14:59:34;;;;;;;2.92;2.30;;;;;;;;;;5028116;28;20264;-82
2023/03/21 15:02:12;;;;;;;2.03;1.70;;;;;;;;;;5036817;28;20230;-82
2023/03/21 15:04:41;;;;;;;2.47;2.00;;;;;;;;;;5031329;28;20207;-82
2023/03/21 15:07:26;;;;;;;1.55;1.45;;;;;;;;;;5033097;28;20580;-82
2023/03/21 15:09:56;;;;;;;1.70;1.60;;;;;;;;;;5036385;28;20313;-82
2023/03/21 15:12:29;;;;;;;1.75;1.63;;;;;;;;;;5033927;28;20285;-83
2023/03/21 15:14:58;;;;;;;2.92;2.10;;;;;;;;;;5031797;28;20251;-82
2023/03/21 15:17:26;;;;;;;3.38;2.00;;;;;;;;;;5036249;28;20244;-83